Time;durP1;ratioP1;P1;durP2;ratioP2;P2;SDS_P1;SDS_P2;PMS_P1;PMS_P2;Temp;Humidity;BMP_temperature;BMP_pressure;BME280_temperature;BME280_humidity;BME280_pressure;Samples;Min_cycle;Max_cycle;Signal;HPM_P1;HPM_P2
2020/12/15 00:02:05;;;;;;;4.05;2.90;;;9.80;80.90;;;;;;5014606;28;20188;-48
2020/12/15 00:04:50;;;;;;;3.65;2.90;;;9.90;80.90;;;;;;5003578;28;20065;-46
2020/12/15 00:07:37;;;;;;;3.30;2.63;;;9.90;80.90;;;;;;5018988;28;20041;-51
2020/12/15 00:10:03;;;;;;;2.67;2.47;;;9.90;80.90;;;;;;5034093;28;20095;-46
2020/12/15 00:12:29;;;;;;;4.80;3.20;;;9.90;81.00;;;;;;5029903;28;20041;-50
2020/12/15 00:14:55;;;;;;;5.90;2.85;;;9.90;81.00;;;;;;5034052;28;20052;-50
2020/12/15 00:17:40;;;;;;;4.13;3.17;;;9.90;80.90;;;;;;5010992;28;20071;-47
2020/12/15 00:20:07;;;;;;;3.25;2.80;;;9.90;81.00;;;;;;5014101;28;20050;-44
2020/12/15 00:22:53;;;;;;;3.70;2.95;;;9.90;81.00;;;;;;5013294;28;20050;-45
2020/12/15 00:25:19;;;;;;;3.60;3.08;;;9.90;80.90;;;;;;5013009;28;20054;-46
2020/12/15 00:27:46;;;;;;;3.60;3.05;;;9.90;80.90;;;;;;4995593;28;20089;-50
2020/12/15 00:30:13;;;;;;;4.63;3.20;;;9.90;80.90;;;;;;4994115;28;20046;-46
2020/12/15 00:32:58;;;;;;;2.72;2.50;;;9.90;80.90;;;;;;5006275;28;20055;-48
2020/12/15 00:35:25;;;;;;;4.28;2.90;;;9.90;80.90;;;;;;4994303;28;20046;-46
2020/12/15 00:37:50;;;;;;;2.85;2.60;;;9.90;81.00;;;;;;4995395;28;20050;-46
2020/12/15 00:40:37;;;;;;;2.88;2.22;;;9.90;81.00;;;;;;4993399;28;20061;-48
2020/12/15 00:43:02;;;;;;;2.92;2.65;;;9.90;80.90;;;;;;5011131;28;20052;-47
2020/12/15 00:45:28;;;;;;;3.60;3.00;;;9.90;81.00;;;;;;5011866;28;20046;-47
2020/12/15 00:47:54;;;;;;;2.70;2.50;;;9.90;81.00;;;;;;5007322;28;20042;-44
2020/12/15 00:50:19;;;;;;;4.05;3.10;;;9.90;80.90;;;;;;4993822;28;20411;-47
2020/12/15 00:53:05;;;;;;;4.43;3.17;;;9.90;80.90;;;;;;5004419;28;20509;-47
2020/12/15 00:55:32;;;;;;;3.78;3.25;;;9.90;80.90;;;;;;4993524;28;20042;-47
2020/12/15 00:57:58;;;;;;;3.50;3.20;;;9.90;80.90;;;;;;4997518;28;20048;-44
2020/12/15 01:00:44;;;;;;;3.70;3.00;;;9.90;80.90;;;;;;5001766;28;20089;-46
2020/12/15 01:03:29;;;;;;;3.00;2.58;;;9.90;81.00;;;;;;4992880;28;20418;-45
2020/12/15 01:06:15;;;;;;;3.53;2.90;;;9.90;80.90;;;;;;4980420;28;20101;-48
2020/12/15 01:08:40;;;;;;;4.30;3.22;;;9.90;81.00;;;;;;4993920;28;20050;-46
2020/12/15 01:11:06;;;;;;;3.50;3.10;;;9.90;80.90;;;;;;4995106;28;20054;-45
2020/12/15 01:13:32;;;;;;;3.17;2.80;;;9.90;80.90;;;;;;4995184;28;20447;-47
2020/12/15 01:16:17;;;;;;;3.53;2.92;;;9.90;81.00;;;;;;4992245;28;20065;-48
2020/12/15 01:18:44;;;;;;;5.10;3.78;;;9.90;80.90;;;;;;5009278;28;20054;-49
2020/12/15 01:21:31;;;;;;;4.18;3.33;;;9.90;80.90;;;;;;5010730;28;20100;-45
2020/12/15 01:23:57;;;;;;;3.25;2.80;;;9.90;81.00;;;;;;5013242;28;20045;-49
2020/12/15 01:26:45;;;;;;;3.33;2.97;;;9.90;80.90;;;;;;5005335;28;20054;-47
2020/12/15 01:29:11;;;;;;;3.58;3.13;;;9.90;81.00;;;;;;4993264;28;20058;-47
2020/12/15 01:31:37;;;;;;;3.10;2.80;;;9.90;80.90;;;;;;4994350;28;20050;-45
2020/12/15 01:34:02;;;;;;;3.92;3.00;;;9.90;81.00;;;;;;5003715;28;20054;-44
2020/12/15 01:36:48;;;;;;;3.95;3.25;;;9.90;81.00;;;;;;5010525;28;20058;-47
2020/12/15 01:39:14;;;;;;;3.42;3.08;;;9.90;80.90;;;;;;5009836;28;20096;-48
2020/12/15 01:41:59;;;;;;;3.65;2.83;;;9.90;81.00;;;;;;4993508;28;20046;-44
2020/12/15 01:44:25;;;;;;;3.45;2.95;;;9.90;80.90;;;;;;4994138;28;20057;-46
2020/12/15 01:46:51;;;;;;;3.40;2.88;;;9.90;81.00;;;;;;4992924;28;20044;-46
2020/12/15 01:49:20;;;;;;;3.20;2.83;;;9.90;81.00;;;;;;5006657;28;20046;-45
2020/12/15 01:51:46;;;;;;;2.95;2.65;;;9.90;81.00;;;;;;4994403;28;20409;-46
2020/12/15 01:54:32;;;;;;;3.58;3.13;;;9.90;81.00;;;;;;4992465;28;20085;-47
2020/12/15 01:57:17;;;;;;;3.55;3.15;;;9.90;81.00;;;;;;4992418;28;20133;-47
2020/12/15 02:00:04;;;;;;;3.88;3.10;;;9.90;81.00;;;;;;4992404;28;20050;-47
2020/12/15 02:02:49;;;;;;;3.47;2.78;;;9.90;81.00;;;;;;5005631;28;20049;-47
2020/12/15 02:05:15;;;;;;;3.72;2.90;;;9.90;81.00;;;;;;5010817;28;20383;-48
2020/12/15 02:07:41;;;;;;;3.13;2.80;;;9.90;81.00;;;;;;5015616;28;20046;-50
2020/12/15 02:10:26;;;;;;;3.05;2.70;;;9.90;81.00;;;;;;5002791;28;20051;-47
2020/12/15 02:12:52;;;;;;;3.13;2.78;;;10.00;81.00;;;;;;5011480;28;20049;-50
2020/12/15 02:15:18;;;;;;;3.22;2.80;;;9.90;81.00;;;;;;5016216;28;20482;-46
2020/12/15 02:17:44;;;;;;;3.15;2.85;;;9.90;81.00;;;;;;5028050;28;20157;-46
2020/12/15 02:20:13;;;;;;;3.55;3.15;;;9.90;81.00;;;;;;5016392;28;20046;-47
2020/12/15 02:22:39;;;;;;;3.72;2.88;;;9.90;81.00;;;;;;5016524;28;20054;-47
2020/12/15 02:25:08;;;;;;;2.55;2.35;;;10.00;81.00;;;;;;5017387;28;20080;-46
2020/12/15 02:27:34;;;;;;;3.25;2.70;;;9.90;81.00;;;;;;5030230;28;20077;-48
2020/12/15 02:30:00;;;;;;;4.38;3.30;;;9.90;81.00;;;;;;5035987;28;20041;-46
2020/12/15 02:32:26;;;;;;;3.55;2.80;;;9.90;81.00;;;;;;5022639;28;20050;-48
2020/12/15 02:34:56;;;;;;;3.80;2.60;;;9.90;81.00;;;;;;5017270;28;20077;-47
2020/12/15 02:37:22;;;;;;;3.70;2.90;;;10.00;81.00;;;;;;5027987;28;20083;-50
2020/12/15 02:40:07;;;;;;;3.35;2.97;;;9.90;81.00;;;;;;5021330;28;20212;-45
2020/12/15 02:42:33;;;;;;;3.03;2.67;;;10.00;81.00;;;;;;5025297;28;20133;-47
2020/12/15 02:45:19;;;;;;;;;;;9.90;81.00;;;;;;5001744;28;20553;-46
2020/12/15 02:47:44;;;;;;;;;;;9.90;81.00;;;;;;5023265;28;19925;-51
2020/12/15 02:50:30;;;;;;;3.83;2.90;;;9.90;81.00;;;;;;5020973;28;19921;-48
2020/12/15 02:52:56;;;;;;;3.08;2.70;;;9.90;81.00;;;;;;5022717;28;20050;-49
2020/12/15 02:55:22;;;;;;;3.63;2.70;;;9.90;81.00;;;;;;5016556;28;20042;-46
2020/12/15 02:57:52;;;;;;;3.20;2.70;;;9.90;81.00;;;;;;5015748;28;20103;-48
2020/12/15 03:00:21;;;;;;;3.90;2.75;;;9.90;81.00;;;;;;5015704;28;20129;-46
2020/12/15 03:02:48;;;;;;;3.67;2.90;;;10.00;81.00;;;;;;5015721;28;20057;-48
2020/12/15 03:05:15;;;;;;;3.13;2.83;;;9.90;81.00;;;;;;5030757;28;20049;-46
2020/12/15 03:07:40;;;;;;;4.15;2.85;;;9.90;81.00;;;;;;5016178;28;20529;-47
2020/12/15 03:10:26;;;;;;;3.00;2.35;;;9.90;81.00;;;;;;5003322;28;20053;-48
2020/12/15 03:12:52;;;;;;;3.17;2.88;;;9.90;81.00;;;;;;5018491;28;20046;-47
2020/12/15 03:15:17;;;;;;;3.08;2.78;;;9.90;81.00;;;;;;5015747;28;20054;-48
2020/12/15 03:18:03;;;;;;;2.95;2.65;;;10.00;81.10;;;;;;5004648;28;20050;-51
2020/12/15 03:20:49;;;;;;;3.65;2.75;;;10.00;81.00;;;;;;5019734;28;20072;-45
2020/12/15 03:23:17;;;;;;;3.60;3.03;;;10.00;81.10;;;;;;5034744;28;20048;-50
2020/12/15 03:26:02;;;;;;;3.33;2.70;;;10.00;81.10;;;;;;5018246;28;20076;-47
2020/12/15 03:28:48;;;;;;;3.00;2.65;;;10.00;81.10;;;;;;5019292;28;20493;-49
2020/12/15 03:31:14;;;;;;;3.33;2.53;;;10.00;81.10;;;;;;5034635;28;20049;-52
2020/12/15 03:33:40;;;;;;;2.67;2.45;;;10.00;81.10;;;;;;5035060;28;20133;-50
2020/12/15 03:36:06;;;;;;;2.83;2.30;;;10.00;81.10;;;;;;5033598;28;20076;-49
2020/12/15 03:38:32;;;;;;;3.30;2.88;;;10.00;81.00;;;;;;5033004;28;20456;-52
2020/12/15 03:41:17;;;;;;;2.97;2.55;;;10.00;81.10;;;;;;5016425;28;20410;-46
2020/12/15 03:44:03;;;;;;;3.20;2.90;;;10.00;81.00;;;;;;5001649;28;20048;-45
2020/12/15 03:46:29;;;;;;;3.90;2.83;;;10.00;81.10;;;;;;5016106;28;20050;-47
2020/12/15 03:48:55;;;;;;;3.15;2.47;;;9.90;81.00;;;;;;5016010;28;20483;-45
2020/12/15 03:51:20;;;;;;;3.25;2.78;;;10.00;81.10;;;;;;5014490;28;20057;-46
2020/12/15 03:53:46;;;;;;;2.60;2.40;;;10.00;81.10;;;;;;5026667;28;20245;-47
2020/12/15 03:56:12;;;;;;;3.03;2.72;;;10.00;81.10;;;;;;5034295;28;20103;-46
2020/12/15 03:58:38;;;;;;;2.70;2.50;;;10.00;81.10;;;;;;5031105;28;20132;-44
2020/12/15 04:01:04;;;;;;;2.72;2.50;;;10.00;81.10;;;;;;5034244;28;20132;-45
2020/12/15 04:03:31;;;;;;;3.10;2.80;;;10.00;81.10;;;;;;5033528;28;20045;-51
2020/12/15 04:06:17;;;;;;;3.17;2.40;;;10.00;81.10;;;;;;5018484;28;20057;-47
2020/12/15 04:08:42;;;;;;;3.15;2.58;;;10.00;81.10;;;;;;5014602;28;20411;-46
2020/12/15 04:11:08;;;;;;;2.80;2.35;;;10.00;81.10;;;;;;5032882;28;20140;-48
2020/12/15 04:13:34;;;;;;;3.58;2.95;;;10.00;81.00;;;;;;5034438;28;20045;-51
2020/12/15 04:15:59;;;;;;;4.15;2.67;;;10.00;81.00;;;;;;5032863;28;20061;-44
2020/12/15 04:18:25;;;;;;;3.40;2.60;;;10.00;81.00;;;;;;5018611;28;20538;-47
2020/12/15 04:20:51;;;;;;;3.47;2.40;;;10.00;81.00;;;;;;5031997;28;20045;-46
2020/12/15 04:23:18;;;;;;;2.85;2.55;;;10.00;81.00;;;;;;5021817;28;20080;-46
2020/12/15 04:25:54;;;;;;;2.78;2.50;;;10.00;81.00;;;;;;5014243;28;20128;-44
2020/12/15 04:28:20;;;;;;;3.30;2.60;;;10.00;81.00;;;;;;5024042;28;20556;-50
2020/12/15 04:31:06;;;;;;;;;;;10.00;81.10;;;;;;5017535;28;20056;-49
2020/12/15 04:33:31;;;;;;;;;;;10.00;81.00;;;;;;5030279;28;19921;-50
2020/12/15 04:35:57;;;;;;;4.30;3.87;;;10.00;81.00;;;;;;5018111;28;19929;-49
2020/12/15 04:38:23;;;;;;;3.47;2.83;;;10.00;81.00;;;;;;5022104;28;20054;-46
2020/12/15 04:40:51;;;;;;;2.67;2.30;;;10.00;81.00;;;;;;5015183;28;20046;-45
2020/12/15 04:43:37;;;;;;;3.63;2.67;;;9.90;81.00;;;;;;4999219;28;20498;-49
2020/12/15 04:46:03;;;;;;;2.65;2.40;;;10.00;81.10;;;;;;5015011;28;20049;-47
2020/12/15 04:48:31;;;;;;;3.00;2.70;;;10.00;81.10;;;;;;5013715;28;20100;-45
2020/12/15 04:50:58;;;;;;;3.22;2.72;;;10.00;81.00;;;;;;5013303;28;20132;-46
2020/12/15 04:53:53;;;;;;;3.85;2.80;;;10.00;81.10;;;;;;4999313;28;20057;-46
2020/12/15 04:56:43;;;;;;;2.78;2.40;;;10.00;81.00;;;;;;5005776;28;20083;-46
2020/12/15 04:59:12;;;;;;;2.92;2.58;;;10.00;81.00;;;;;;5033207;28;20079;-46
2020/12/15 05:01:59;;;;;;;2.90;2.60;;;10.00;81.00;;;;;;4997044;28;20049;-45
2020/12/15 05:04:25;;;;;;;2.30;2.10;;;10.00;81.10;;;;;;5013333;28;20058;-46
2020/12/15 05:06:54;;;;;;;3.10;2.70;;;10.00;81.10;;;;;;5021699;28;20134;-49
2020/12/15 05:09:30;;;;;;;2.65;2.45;;;10.00;81.10;;;;;;5023607;28;20047;-48
2020/12/15 05:11:57;;;;;;;3.10;2.53;;;10.00;81.10;;;;;;5018046;28;20050;-49
2020/12/15 05:14:24;;;;;;;3.63;2.70;;;10.00;81.10;;;;;;5029113;28;20417;-47
2020/12/15 05:17:09;;;;;;;3.20;2.88;;;10.00;81.10;;;;;;5017645;28;20500;-46
2020/12/15 05:19:43;;;;;;;3.03;2.50;;;10.00;81.00;;;;;;5032822;28;20064;-47
2020/12/15 05:22:09;;;;;;;2.92;2.47;;;10.00;81.10;;;;;;5027284;28;20095;-45
2020/12/15 05:24:55;;;;;;;3.00;2.58;;;10.00;81.10;;;;;;5000972;28;20453;-47
2020/12/15 05:27:42;;;;;;;3.60;3.00;;;10.00;81.10;;;;;;5004701;28;20049;-47
2020/12/15 05:30:11;;;;;;;2.90;2.30;;;10.00;81.00;;;;;;5013336;28;20050;-47
2020/12/15 05:33:00;;;;;;;2.88;2.47;;;10.00;81.10;;;;;;4998476;28;20050;-45
2020/12/15 05:35:30;;;;;;;2.72;2.50;;;10.00;81.20;;;;;;5013962;28;20050;-48
2020/12/15 05:38:17;;;;;;;2.97;2.67;;;10.00;81.10;;;;;;5017193;28;20049;-47
2020/12/15 05:40:43;;;;;;;2.55;2.28;;;10.00;81.10;;;;;;5032687;28;20406;-48
2020/12/15 05:43:08;;;;;;;2.80;2.50;;;10.00;81.00;;;;;;5016843;28;20049;-45
2020/12/15 05:45:34;;;;;;;2.95;2.65;;;10.10;81.20;;;;;;5030856;28;20103;-52
2020/12/15 05:48:03;;;;;;;2.80;2.42;;;10.10;81.10;;;;;;5018471;28;20041;-48
2020/12/15 05:50:56;;;;;;;2.65;2.42;;;10.00;81.10;;;;;;4998489;28;20089;-45
2020/12/15 05:53:22;;;;;;;2.83;2.40;;;10.10;81.30;;;;;;5012424;28;20112;-46
2020/12/15 05:56:19;;;;;;;3.00;2.60;;;10.00;81.10;;;;;;4999199;28;20053;-48
2020/12/15 05:59:19;;;;;;;3.67;2.80;;;10.00;81.00;;;;;;4998187;28;20044;-46
2020/12/15 06:02:09;;;;;;;2.88;2.38;;;10.00;81.10;;;;;;5007865;28;20053;-46
2020/12/15 06:04:38;;;;;;;2.55;2.33;;;10.00;81.10;;;;;;5013656;28;20049;-48
2020/12/15 06:07:05;;;;;;;2.90;2.60;;;10.00;81.10;;;;;;5013792;28;20450;-47
2020/12/15 06:09:31;;;;;;;3.10;2.50;;;10.10;81.10;;;;;;5012374;28;20120;-48
2020/12/15 06:11:58;;;;;;;3.80;2.80;;;10.00;81.10;;;;;;5029293;28;20664;-47
2020/12/15 06:14:25;;;;;;;3.10;2.80;;;10.10;81.10;;;;;;5032099;28;20095;-46
2020/12/15 06:16:52;;;;;;;2.70;2.50;;;10.00;81.10;;;;;;5016741;28;20141;-47
2020/12/15 06:19:37;;;;;;;2.78;2.50;;;10.00;81.10;;;;;;5008335;28;20497;-44
2020/12/15 06:22:03;;;;;;;3.40;3.08;;;10.00;81.10;;;;;;5031977;28;20080;-45
2020/12/15 06:24:59;;;;;;;2.80;2.55;;;10.10;81.20;;;;;;5017632;28;20045;-45
2020/12/15 06:27:36;;;;;;;2.80;2.50;;;10.10;81.20;;;;;;5030109;28;20061;-46
2020/12/15 06:30:28;;;;;;;3.08;2.47;;;10.10;81.20;;;;;;5017586;28;20052;-45
2020/12/15 06:33:14;;;;;;;3.13;2.83;;;10.10;81.20;;;;;;5001599;28;20056;-47
2020/12/15 06:36:01;;;;;;;3.70;2.50;;;10.00;81.10;;;;;;5010198;28;20057;-47
2020/12/15 06:38:27;;;;;;;3.28;2.67;;;10.10;81.10;;;;;;5013175;28;20046;-47
2020/12/15 06:41:25;;;;;;;2.55;2.33;;;10.10;81.20;;;;;;4997993;28;20045;-46
2020/12/15 06:43:51;;;;;;;2.95;2.63;;;10.10;81.20;;;;;;5013502;28;20064;-47
2020/12/15 06:46:27;;;;;;;3.03;2.60;;;10.10;81.20;;;;;;5012147;28;20064;-47
2020/12/15 06:49:12;;;;;;;3.22;2.55;;;10.10;81.20;;;;;;5014267;28;20096;-47
2020/12/15 06:52:00;;;;;;;2.85;2.60;;;10.10;81.20;;;;;;5002737;28;20137;-46
2020/12/15 06:54:28;;;;;;;3.17;2.80;;;10.00;81.10;;;;;;5015571;28;20414;-47
2020/12/15 06:57:13;;;;;;;2.83;2.53;;;10.10;81.20;;;;;;5013807;28;20060;-47
2020/12/15 06:59:40;;;;;;;2.80;2.55;;;10.10;81.20;;;;;;5033897;28;20049;-47
2020/12/15 07:02:16;;;;;;;2.90;2.55;;;10.10;81.20;;;;;;5025135;28;20056;-47
2020/12/15 07:04:42;;;;;;;2.97;2.67;;;10.10;81.20;;;;;;5015878;28;20052;-47
2020/12/15 07:07:07;;;;;;;3.08;2.78;;;10.10;81.20;;;;;;5026118;28;20140;-47
2020/12/15 07:09:57;;;;;;;3.08;2.78;;;10.10;81.20;;;;;;5018498;28;20048;-48
2020/12/15 07:12:23;;;;;;;3.42;2.60;;;10.10;81.20;;;;;;5018782;28;20080;-48
2020/12/15 07:14:50;;;;;;;2.60;2.40;;;10.10;81.20;;;;;;5015610;28;20077;-49
2020/12/15 07:17:17;;;;;;;2.97;2.58;;;10.10;81.20;;;;;;5015113;28;20057;-47
2020/12/15 07:19:43;;;;;;;2.70;2.50;;;10.10;81.20;;;;;;5028428;28;20092;-48
2020/12/15 07:22:09;;;;;;;3.30;2.72;;;10.10;81.20;;;;;;5025283;28;20057;-50
2020/12/15 07:24:55;;;;;;;3.38;2.55;;;10.10;81.20;;;;;;5020048;28;20081;-48
2020/12/15 07:27:42;;;;;;;3.35;3.05;;;10.10;81.20;;;;;;5019960;28;20481;-47
2020/12/15 07:30:28;;;;;;;2.97;2.67;;;10.10;81.20;;;;;;5018478;28;20052;-48
2020/12/15 07:32:54;;;;;;;4.35;2.75;;;10.10;81.20;;;;;;5034846;28;20456;-46
2020/12/15 07:35:22;;;;;;;3.10;2.80;;;10.10;81.20;;;;;;5034832;28;20053;-49
2020/12/15 07:37:56;;;;;;;2.80;2.60;;;10.10;81.20;;;;;;5034441;28;20057;-47
2020/12/15 07:40:23;;;;;;;3.28;2.75;;;10.00;81.10;;;;;;5026386;28;20073;-51
2020/12/15 07:43:08;;;;;;;2.80;2.35;;;10.10;81.20;;;;;;5011645;28;20049;-48
2020/12/15 07:45:54;;;;;;;3.00;2.70;;;10.10;81.20;;;;;;5017337;28;20056;-50
2020/12/15 07:48:23;;;;;;;3.28;2.63;;;10.10;81.20;;;;;;5032836;28;20042;-46
2020/12/15 07:50:48;;;;;;;3.15;2.85;;;10.10;81.20;;;;;;5032772;28;20563;-46
2020/12/15 07:53:16;;;;;;;3.30;2.53;;;10.10;81.20;;;;;;5027408;28;20042;-44
2020/12/15 07:56:06;;;;;;;3.03;2.45;;;10.10;81.20;;;;;;5011454;28;20107;-44
2020/12/15 07:58:53;;;;;;;3.58;2.90;;;10.10;81.20;;;;;;4999687;28;20053;-47
2020/12/15 08:01:27;;;;;;;3.53;3.10;;;10.10;81.20;;;;;;5018577;28;20053;-45
2020/12/15 08:04:00;;;;;;;3.83;3.15;;;10.10;81.20;;;;;;5032500;28;20123;-47
2020/12/15 08:06:28;;;;;;;3.35;2.70;;;10.10;81.20;;;;;;5029256;28;20061;-48
2020/12/15 08:08:55;;;;;;;4.10;2.80;;;10.10;81.20;;;;;;5014497;28;20491;-43
2020/12/15 08:11:49;;;;;;;3.75;2.60;;;10.10;81.20;;;;;;5012198;28;20509;-49
2020/12/15 08:14:39;;;;;;;2.92;2.35;;;10.10;81.20;;;;;;5019557;28;20085;-57
2020/12/15 08:17:26;;;;;;;3.38;3.08;;;10.10;81.20;;;;;;5004720;28;20053;-48
2020/12/15 08:20:15;;;;;;;2.88;2.60;;;10.10;81.20;;;;;;5004569;28;20100;-43
2020/12/15 08:22:42;;;;;;;3.05;2.75;;;10.10;81.20;;;;;;5025592;28;20149;-47
2020/12/15 08:25:10;;;;;;;3.70;2.90;;;10.10;81.20;;;;;;5014304;28;20465;-42
2020/12/15 08:28:06;;;;;;;3.20;2.70;;;10.10;81.20;;;;;;5009289;28;20041;-43
2020/12/15 08:30:33;;;;;;;3.58;2.65;;;10.10;81.20;;;;;;5033812;28;20076;-45
2020/12/15 08:32:58;;;;;;;3.30;2.75;;;10.10;81.20;;;;;;5033848;28;20493;-46
2020/12/15 08:35:26;;;;;;;3.30;2.85;;;10.10;81.20;;;;;;5033477;28;20053;-46
2020/12/15 08:38:11;;;;;;;3.78;3.25;;;10.10;81.20;;;;;;5013883;28;20046;-44
2020/12/15 08:40:37;;;;;;;3.95;2.90;;;10.10;81.20;;;;;;5028475;28;20057;-47
2020/12/15 08:43:23;;;;;;;;;;;10.10;81.20;;;;;;4999374;28;20046;-46
2020/12/15 08:46:17;;;;;;;3.70;2.95;;;10.10;81.20;;;;;;4999042;28;20032;-44
2020/12/15 08:48:43;;;;;;;3.20;2.85;;;10.10;81.20;;;;;;5021947;28;20045;-48
2020/12/15 08:51:30;;;;;;;3.28;2.88;;;10.10;81.20;;;;;;4999023;28;20120;-44
2020/12/15 08:53:59;;;;;;;2.97;2.67;;;10.10;81.10;;;;;;5013959;28;20068;-45
2020/12/15 08:56:45;;;;;;;3.58;2.95;;;10.10;81.20;;;;;;5018886;28;20052;-47
2020/12/15 08:59:32;;;;;;;;;;;10.10;81.20;;;;;;5004457;28;20099;-42
2020/12/15 09:01:58;;;;;;;3.25;2.95;;;10.10;81.20;;;;;;5013483;28;19928;-43
2020/12/15 09:04:26;;;;;;;3.80;2.88;;;10.10;81.10;;;;;;5013356;28;20076;-45
2020/12/15 09:06:52;;;;;;;2.97;2.63;;;10.10;81.10;;;;;;5013531;28;20077;-43
2020/12/15 09:09:26;;;;;;;4.40;3.42;;;10.10;81.10;;;;;;5016816;28;20061;-44
2020/12/15 09:11:55;;;;;;;3.80;2.85;;;10.10;81.20;;;;;;5032648;28;20094;-43
2020/12/15 09:14:22;;;;;;;4.13;3.28;;;10.10;81.10;;;;;;5032356;28;20049;-42
2020/12/15 09:16:48;;;;;;;4.40;3.13;;;10.10;81.10;;;;;;5026997;28;20045;-41
2020/12/15 09:19:16;;;;;;;3.13;2.83;;;10.10;81.20;;;;;;4996324;28;20061;-42
2020/12/15 09:21:54;;;;;;;3.20;2.70;;;10.10;81.10;;;;;;5032190;28;20045;-39
2020/12/15 09:24:20;;;;;;;3.47;3.17;;;10.10;81.10;;;;;;5032618;28;20049;-40
2020/12/15 09:26:45;;;;;;;4.65;3.10;;;10.10;81.10;;;;;;5028188;28;20605;-40
2020/12/15 09:29:11;;;;;;;2.83;2.53;;;10.10;81.10;;;;;;5032241;28;20049;-38
2020/12/15 09:31:39;;;;;;;3.70;3.00;;;10.10;81.10;;;;;;5032502;28;20411;-41
2020/12/15 09:34:25;;;;;;;3.70;2.80;;;10.10;81.10;;;;;;4997924;28;20052;-40
2020/12/15 09:36:56;;;;;;;3.38;3.00;;;10.10;81.10;;;;;;5012826;28;20050;-41
2020/12/15 09:39:30;;;;;;;3.45;2.78;;;10.20;81.10;;;;;;5012724;28;20046;-41
2020/12/15 09:42:00;;;;;;;3.40;2.92;;;10.20;81.10;;;;;;5012906;28;20510;-41
2020/12/15 09:44:26;;;;;;;3.55;2.92;;;10.10;81.10;;;;;;5016341;28;20136;-39
2020/12/15 09:46:52;;;;;;;3.50;2.83;;;10.10;81.10;;;;;;5032339;28;20045;-40
2020/12/15 09:49:18;;;;;;;4.30;3.00;;;10.20;81.10;;;;;;5032299;28;20099;-40
2020/12/15 09:52:04;;;;;;;3.88;3.08;;;10.20;81.10;;;;;;5017626;28;20574;-38
2020/12/15 09:54:49;;;;;;;;;;;10.20;81.10;;;;;;5018314;28;20053;-41
2020/12/15 09:57:35;;;;;;;4.55;2.90;;;10.10;81.00;;;;;;5017175;28;20292;-39
2020/12/15 10:00:21;;;;;;;4.03;3.35;;;10.10;81.00;;;;;;5017318;28;20414;-40
2020/12/15 10:02:46;;;;;;;3.38;2.70;;;10.20;81.10;;;;;;5032279;28;20060;-39
2020/12/15 10:05:32;;;;;;;4.25;3.33;;;10.20;81.10;;;;;;5017806;28;20076;-41
2020/12/15 10:08:18;;;;;;;3.50;2.58;;;10.20;81.10;;;;;;5017678;28;20077;-41
2020/12/15 10:10:43;;;;;;;2.60;2.40;;;10.20;81.10;;;;;;5032362;28;20080;-39
2020/12/15 10:13:29;;;;;;;3.35;3.05;;;10.20;81.10;;;;;;5017240;28;20505;-42
2020/12/15 10:15:55;;;;;;;3.72;3.28;;;10.20;81.10;;;;;;5031999;28;20056;-42
2020/12/15 10:18:20;;;;;;;3.60;2.92;;;10.20;81.10;;;;;;5031880;28;20054;-39
2020/12/15 10:20:48;;;;;;;3.55;3.25;;;10.20;81.10;;;;;;5032180;28;20057;-42
2020/12/15 10:23:14;;;;;;;4.18;3.00;;;10.20;81.10;;;;;;5032063;28;20049;-42
2020/12/15 10:25:40;;;;;;;3.75;2.95;;;10.20;81.10;;;;;;5014776;28;20382;-41
2020/12/15 10:28:09;;;;;;;3.30;3.00;;;10.20;81.10;;;;;;5033835;28;20452;-41
2020/12/15 10:30:55;;;;;;;3.33;3.03;;;10.20;81.10;;;;;;5021262;28;20050;-42
2020/12/15 10:33:21;;;;;;;4.68;3.38;;;10.20;81.00;;;;;;5035754;28;20456;-40
2020/12/15 10:36:10;;;;;;;3.95;3.15;;;10.20;81.10;;;;;;5021085;28;20049;-40
2020/12/15 10:38:35;;;;;;;3.50;3.00;;;10.20;81.10;;;;;;5035807;28;20057;-40
2020/12/15 10:41:01;;;;;;;3.67;3.15;;;10.20;81.10;;;;;;5035672;28;20053;-42
2020/12/15 10:43:27;;;;;;;2.97;2.67;;;10.20;81.10;;;;;;5035548;28;20084;-42
2020/12/15 10:46:12;;;;;;;3.53;2.80;;;10.20;81.10;;;;;;5020646;28;20056;-40
2020/12/15 10:48:38;;;;;;;3.85;3.00;;;10.20;81.10;;;;;;5035721;28;20124;-40
2020/12/15 10:51:04;;;;;;;3.78;3.05;;;10.20;81.00;;;;;;5035624;28;20053;-44
2020/12/15 10:53:29;;;;;;;2.50;2.30;;;10.20;81.10;;;;;;5035349;28;20103;-40
2020/12/15 10:56:15;;;;;;;4.15;3.05;;;10.20;81.00;;;;;;5020555;28;20048;-41
2020/12/15 10:58:41;;;;;;;3.85;2.85;;;10.20;81.00;;;;;;5035574;28;20049;-38
2020/12/15 11:01:07;;;;;;;4.00;2.75;;;10.20;81.00;;;;;;5035335;28;20123;-38
2020/12/15 11:03:34;;;;;;;3.38;3.08;;;10.20;81.00;;;;;;5035359;28;20073;-39
2020/12/15 11:06:00;;;;;;;4.30;3.30;;;10.20;81.00;;;;;;5035521;28;20068;-39
2020/12/15 11:08:26;;;;;;;3.13;2.83;;;10.20;81.00;;;;;;5035109;28;20122;-39
2020/12/15 11:10:53;;;;;;;3.42;2.83;;;10.20;80.90;;;;;;5035210;28;20479;-40
2020/12/15 11:13:19;;;;;;;3.10;2.75;;;10.20;81.00;;;;;;5033126;28;20119;-43
2020/12/15 11:15:44;;;;;;;3.40;3.10;;;10.20;81.00;;;;;;5034761;28;20080;-40
2020/12/15 11:18:10;;;;;;;3.50;2.83;;;10.20;80.90;;;;;;5026151;28;20058;-41
2020/12/15 11:20:56;;;;;;;;;;;10.20;80.90;;;;;;4997290;28;20487;-42
2020/12/15 11:23:42;;;;;;;4.38;3.13;;;10.20;80.90;;;;;;4993189;28;19927;-42
2020/12/15 11:26:07;;;;;;;4.35;3.15;;;10.20;81.00;;;;;;5030540;28;20139;-39
2020/12/15 11:28:33;;;;;;;3.80;2.85;;;10.20;80.90;;;;;;5026160;28;20042;-46
2020/12/15 11:30:59;;;;;;;3.03;2.63;;;10.20;81.00;;;;;;5023640;28;20045;-41
2020/12/15 11:33:25;;;;;;;3.25;2.92;;;10.20;81.00;;;;;;5022542;28;20133;-41
2020/12/15 11:35:51;;;;;;;18.80;13.77;;;10.30;81.00;;;;;;5025610;28;20120;-43
2020/12/15 11:38:18;;;;;;;16.67;11.73;;;10.30;82.30;;;;;;5022271;28;20056;-41
2020/12/15 11:40:46;;;;;;;20.25;10.68;;;10.30;82.60;;;;;;5015193;28;20049;-45
2020/12/15 11:43:31;;;;;;;19.35;9.63;;;10.30;82.50;;;;;;4985069;28;20797;-45
2020/12/15 11:45:57;;;;;;;12.77;8.65;;;10.30;82.50;;;;;;4995202;28;20050;-41
2020/12/15 11:48:43;;;;;;;10.63;8.00;;;10.30;82.50;;;;;;4981063;28;20139;-45
2020/12/15 11:51:08;;;;;;;10.90;7.22;;;10.30;82.50;;;;;;4994867;28;20137;-40
2020/12/15 11:53:34;;;;;;;8.73;7.43;;;10.30;82.50;;;;;;4994987;28;20050;-39
2020/12/15 11:56:00;;;;;;;12.02;8.30;;;10.30;82.40;;;;;;4995228;28;20491;-42
2020/12/15 11:58:25;;;;;;;9.55;7.70;;;10.30;82.40;;;;;;4994788;28;20439;-44
2020/12/15 12:00:51;;;;;;;9.45;7.45;;;10.30;82.40;;;;;;4995258;28;20074;-41
2020/12/15 12:03:17;;;;;;;11.18;8.02;;;10.30;82.30;;;;;;4994336;28;20050;-42
2020/12/15 12:05:42;;;;;;;10.40;6.85;;;10.30;82.30;;;;;;4999692;28;20052;-43
2020/12/15 12:08:08;;;;;;;9.50;7.22;;;10.30;82.20;;;;;;5014432;28;20049;-40
2020/12/15 12:10:34;;;;;;;9.55;7.15;;;10.30;82.20;;;;;;5014517;28;20486;-43
2020/12/15 12:12:59;;;;;;;10.43;7.45;;;10.30;82.10;;;;;;5014558;28;20050;-42
2020/12/15 12:15:27;;;;;;;10.52;7.38;;;10.30;82.10;;;;;;5012167;28;20050;-40
2020/12/15 12:18:12;;;;;;;10.60;6.93;;;10.30;82.10;;;;;;5001288;28;20106;-41
2020/12/15 12:20:38;;;;;;;8.45;6.82;;;10.30;82.00;;;;;;4994650;28;20085;-41
2020/12/15 12:23:04;;;;;;;7.95;6.75;;;10.40;82.00;;;;;;4994514;28;20510;-42
2020/12/15 12:25:49;;;;;;;8.68;6.78;;;10.30;81.90;;;;;;5004992;28;20136;-42
2020/12/15 12:28:35;;;;;;;8.23;6.32;;;10.30;81.90;;;;;;5000883;28;20077;-46
2020/12/15 12:31:01;;;;;;;8.30;6.78;;;10.30;81.90;;;;;;5014006;28;20084;-53
2020/12/15 12:33:27;;;;;;;9.25;6.95;;;10.30;81.90;;;;;;5013533;28;20497;-49
2020/12/15 12:35:53;;;;;;;8.80;6.55;;;10.30;81.80;;;;;;5013977;28;20057;-44
2020/12/15 12:38:20;;;;;;;8.77;6.80;;;10.30;81.80;;;;;;5013911;28;20053;-44
2020/12/15 12:40:47;;;;;;;9.23;6.80;;;10.30;81.80;;;;;;5014182;28;20061;-55
2020/12/15 12:43:13;;;;;;;8.35;7.22;;;10.30;81.80;;;;;;5013796;28;20054;-50
2020/12/15 12:45:40;;;;;;;7.30;6.30;;;10.30;81.80;;;;;;5013620;28;20057;-46
2020/12/15 12:48:26;;;;;;;7.88;6.40;;;10.30;81.80;;;;;;5012239;28;20144;-52
2020/12/15 12:50:52;;;;;;;8.02;6.18;;;10.30;81.80;;;;;;5013299;28;20132;-51
2020/12/15 12:53:41;;;;;;;9.18;6.50;;;10.40;81.80;;;;;;5012965;28;20056;-51
2020/12/15 12:56:07;;;;;;;7.90;6.57;;;10.30;81.70;;;;;;5013678;28;20060;-50
2020/12/15 12:58:53;;;;;;;9.90;6.50;;;10.30;81.70;;;;;;5012626;28;20564;-47
2020/12/15 13:01:22;;;;;;;9.30;6.72;;;10.30;81.60;;;;;;5013281;28;20049;-47
2020/12/15 13:04:07;;;;;;;7.40;5.97;;;10.30;81.70;;;;;;5012323;28;20115;-49
2020/12/15 13:06:33;;;;;;;7.28;6.07;;;10.30;81.60;;;;;;5013457;28;20494;-51
2020/12/15 13:08:59;;;;;;;7.28;6.40;;;10.40;81.60;;;;;;5013192;28;20129;-45
2020/12/15 13:11:25;;;;;;;8.02;5.88;;;10.40;81.60;;;;;;5012858;28;20049;-49
2020/12/15 13:14:11;;;;;;;6.35;5.75;;;10.40;81.60;;;;;;5006368;28;20042;-50
2020/12/15 13:16:36;;;;;;;7.72;5.93;;;10.40;81.60;;;;;;5014031;28;20107;-49
2020/12/15 13:19:02;;;;;;;6.78;6.00;;;10.40;81.60;;;;;;5032156;28;20080;-43
2020/12/15 13:21:28;;;;;;;7.80;6.40;;;10.40;81.60;;;;;;5032384;28;20119;-52